| time (UTC) | temp F | wind direction | speed MPH | gust MPH | rain 1hr in | rain 24hr in | rain mn in | humidity % | barometer mb |
| 20260507111835 | 48 | 0 | 3.0 | 0.0 | 0.00 | 0.00 | 0.00 | 97 | 1020.0 |
| 20260507110834 | 48 | 70 | 4.0 | 0.0 | 0.00 | 0.00 | 0.00 | 96 | 1020.0 |
| 20260507105833 | 48 | 70 | 4.0 | 0.0 | 0.00 | 0.00 | 0.00 | 96 | 1021.0 |
| 20260507104833 | 48 | 70 | 4.0 | 0.0 | 0.00 | 0.00 | 0.00 | 95 | 1021.0 |
| 20260507103832 | 48 | 70 | 4.0 | 0.0 | 0.00 | 0.00 | 0.00 | 95 | 1021.0 |
| 20260507102832 | 48 | 80 | 3.0 | 0.0 | 0.00 | 0.00 | 0.00 | 94 | 1020.0 |
| 20260507101831 | 48 | 80 | 3.0 | 0.0 | 0.00 | 0.00 | 0.00 | 94 | 1020.0 |
| 20260507100831 | 48 | 80 | 3.0 | 0.0 | 0.00 | 0.00 | 0.00 | 92 | 1020.0 |
| 20260507095830 | 48 | 102 | 3.0 | 2.0 | 0.00 | 0.00 | 0.00 | 91 | 1020.0 |
| 20260507094829 | 48 | 102 | 3.0 | 2.0 | 0.00 | 0.00 | 0.00 | 91 | 1020.0 |
| 20260507093829 | 48 | 102 | 3.0 | 2.0 | 0.00 | 0.00 | 0.00 | 91 | 1020.0 |
| 20260507092828 | 48 | 101 | 3.0 | 2.0 | 0.00 | 0.00 | 0.00 | 91 | 1020.0 |
| 20260507091828 | 51 | 0 | 3.0 | 0.0 | 0.00 | 0.00 | 0.00 | 94 | 1020.0 |
| 20260507090827 | 51 | 0 | 3.0 | 0.0 | 0.00 | 0.00 | 0.00 | 94 | 1020.0 |
| 20260507085827 | 50 | 350 | 3.0 | 0.0 | 0.00 | 0.00 | 0.00 | 93 | 1020.0 |
| 20260507084826 | 50 | 350 | 3.0 | 0.0 | 0.00 | 0.00 | 0.00 | 93 | 1020.0 |
| 20260507083826 | 50 | 350 | 3.0 | 0.0 | 0.00 | 0.00 | 0.00 | 92 | 1020.0 |
| 20260507082825 | 49 | 350 | 3.0 | 0.0 | 0.00 | 0.00 | 0.00 | 92 | 1020.0 |
| 20260507081824 | 49 | 350 | 3.0 | 0.0 | 0.00 | 0.00 | 0.00 | 92 | 1020.0 |
| 20260507080824 | 49 | 0 | 2.0 | 0.0 | 0.00 | 0.00 | 0.00 | 92 | 1021.0 |
| 20260507075823 | 49 | 0 | 2.0 | 0.0 | 0.00 | 0.00 | 0.00 | 92 | 1021.0 |
| 20260507074823 | 49 | 0 | 2.0 | 0.0 | 0.00 | 0.00 | 0.00 | 92 | 1021.0 |
| 20260507073822 | 49 | 0 | 2.0 | 0.0 | 0.00 | 0.00 | 0.00 | 92 | 1021.0 |
| 20260507072822 | 49 | 0 | 2.0 | 0.0 | 0.00 | 0.00 | 0.00 | 92 | 1021.0 |
| 20260507071821 | 49 | 0 | 2.0 | 0.0 | 0.00 | 0.00 | 0.00 | 92 | 1021.0 |
| 20260507070821 | 49 | 0 | 2.0 | 0.0 | 0.00 | 0.00 | 0.00 | 92 | 1021.0 |
| 20260507065820 | 50 | 60 | 4.0 | 0.0 | 0.00 | 0.00 | 0.00 | 92 | 1021.0 |
| 20260507064819 | 51 | 60 | 4.0 | 0.0 | 0.00 | 0.00 | 0.00 | 94 | 1021.0 |
| 20260507063819 | 51 | 60 | 4.0 | 0.0 | 0.00 | 0.00 | 0.00 | 94 | 1021.0 |
| 20260507062818 | 51 | 60 | 4.0 | 0.0 | 0.00 | 0.00 | 0.00 | 90 | 1021.0 |
| 20260507061818 | 51 | 60 | 4.0 | 0.0 | 0.00 | 0.00 | 0.00 | 90 | 1021.0 |
| 20260507060817 | 50 | 60 | 4.0 | 0.0 | 0.00 | 0.00 | 0.00 | 89 | 1021.0 |
| 20260507055817 | 50 | 40 | 2.0 | 0.0 | 0.00 | 0.00 | 0.00 | 89 | 1021.0 |
| 20260507054816 | 50 | 40 | 2.0 | 0.0 | 0.00 | 0.00 | 0.00 | 88 | 1021.0 |
| 20260507053815 | 50 | 40 | 2.0 | 0.0 | 0.00 | 0.00 | 0.00 | 88 | 1022.0 |
| 20260507052815 | 50 | 40 | 2.0 | 0.0 | 0.00 | 0.00 | 0.00 | 87 | 1022.0 |
| 20260507051814 | 50 | 40 | 2.0 | 0.0 | 0.00 | 0.00 | 0.00 | 87 | 1022.0 |
| 20260507050814 | 50 | 40 | 2.0 | 0.0 | 0.00 | 0.00 | 0.00 | 86 | 1022.0 |
| 20260507045813 | 50 | 20 | 3.0 | 0.0 | 0.00 | 0.00 | 0.00 | 85 | 1022.0 |
| 20260507044812 | 50 | 20 | 3.0 | 0.0 | 0.00 | 0.00 | 0.00 | 84 | 1022.0 |
| 20260507043812 | 51 | 20 | 3.0 | 0.0 | 0.00 | 0.00 | 0.00 | 81 | 1022.0 |
| 20260507042811 | 51 | 20 | 3.0 | 0.0 | 0.00 | 0.00 | 0.00 | 81 | 1022.0 |
| 20260507041811 | 51 | 20 | 3.0 | 0.0 | 0.00 | 0.00 | 0.00 | 80 | 1022.0 |
| 20260507040810 | 50 | 20 | 3.0 | 0.0 | 0.00 | 0.00 | 0.00 | 84 | 1022.0 |
| 20260507035809 | 52 | 70 | 4.0 | 0.0 | 0.00 | 0.00 | 0.00 | 71 | 1022.0 |
| 20260507034809 | 52 | 70 | 4.0 | 0.0 | 0.00 | 0.00 | 0.00 | 71 | 1022.0 |
| 20260507033808 | 52 | 70 | 4.0 | 0.0 | 0.00 | 0.00 | 0.00 | 71 | 1022.0 |
| 20260507032808 | 52 | 70 | 4.0 | 0.0 | 0.00 | 0.00 | 0.00 | 71 | 1022.0 |
| 20260507031807 | 52 | 70 | 4.0 | 0.0 | 0.00 | 0.00 | 0.00 | 71 | 1022.0 |
| 20260507030807 | 53 | 70 | 4.0 | 0.0 | 0.00 | 0.00 | 0.00 | 71 | 1022.0 |
| 20260507025806 | 57 | 110 | 4.0 | 0.0 | 0.00 | 0.00 | 0.00 | 58 | 1022.0 |
| 20260507024806 | 57 | 110 | 4.0 | 0.0 | 0.00 | 0.00 | 0.00 | 58 | 1022.0 |
| 20260507023805 | 57 | 110 | 4.0 | 0.0 | 0.00 | 0.00 | 0.00 | 58 | 1022.0 |
| 20260507022804 | 57 | 110 | 4.0 | 0.0 | 0.00 | 0.00 | 0.00 | 58 | 1021.0 |
| 20260507021804 | 57 | 110 | 4.0 | 0.0 | 0.00 | 0.00 | 0.00 | 58 | 1021.0 |
| 20260507020803 | 57 | 110 | 4.0 | 0.0 | 0.00 | 0.00 | 0.00 | 58 | 1021.0 |
| 20260507015803 | 57 | 130 | 8.0 | 0.0 | 0.00 | 0.00 | 0.00 | 63 | 1022.0 |
| 20260507014802 | 57 | 130 | 8.0 | 0.0 | 0.00 | 0.00 | 0.00 | 63 | 1022.0 |
| 20260507013801 | 57 | 130 | 8.0 | 0.0 | 0.00 | 0.00 | 0.00 | 63 | 1021.0 |
| 20260507012801 | 57 | 130 | 8.0 | 0.0 | 0.00 | 0.00 | 0.00 | 63 | 1020.0 |
| 20260507011800 | 57 | 130 | 8.0 | 0.0 | 0.00 | 0.00 | 0.00 | 63 | 1020.0 |
| 20260507010759 | 57 | 130 | 8.0 | 0.0 | 0.00 | 0.00 | 0.00 | 63 | 1020.0 |
| 20260507005759 | 60 | 120 | 5.0 | 0.0 | 0.00 | 0.00 | 0.00 | 51 | 1021.0 |
| 20260507004758 | 60 | 120 | 5.0 | 0.0 | 0.00 | 0.00 | 0.00 | 51 | 1021.0 |
| 20260507003758 | 60 | 120 | 5.0 | 0.0 | 0.00 | 0.00 | 0.00 | 51 | 1020.0 |
| 20260507002757 | 60 | 120 | 5.0 | 0.0 | 0.00 | 0.00 | 0.00 | 51 | 1018.0 |
| 20260507001757 | 60 | 120 | 5.0 | 0.0 | 0.00 | 0.00 | 0.00 | 51 | 1018.0 |
| 20260507000756 | 60 | 120 | 5.0 | 0.0 | 0.00 | 0.00 | 0.00 | 51 | 1018.0 |
| 20260506235755 | 62 | 130 | 9.0 | 0.0 | 0.00 | 0.00 | 0.00 | 48 | 1019.0 |
| 20260506234755 | 62 | 130 | 9.0 | 0.0 | 0.00 | 0.00 | 0.00 | 48 | 1019.0 |
| 20260506233754 | 62 | 130 | 9.0 | 0.0 | 0.00 | 0.00 | 0.00 | 48 | 1018.0 |
| 20260506232754 | 58 | 138 | 4.0 | 5.0 | 0.00 | 0.00 | 0.00 | 85 | 1017.0 |
| 20260506231753 | 58 | 138 | 4.0 | 5.0 | 0.00 | 0.00 | 0.00 | 85 | 1017.0 |
| 20260506230752 | 58 | 138 | 4.0 | 5.0 | 0.00 | 0.00 | 0.00 | 85 | 1017.0 |
| 20260506225752 | 58 | 138 | 4.0 | 5.0 | 0.00 | 0.00 | 0.00 | 85 | 1017.0 |
| 20260506224751 | 58 | 138 | 4.0 | 5.0 | 0.00 | 0.00 | 0.00 | 85 | 1017.0 |
| 20260506223751 | 58 | 138 | 4.0 | 5.0 | 0.00 | 0.00 | 0.00 | 85 | 1016.0 |
| 20260506222750 | 61 | 151 | 5.0 | 8.0 | 0.00 | 0.00 | 0.00 | 85 | 1015.0 |
| 20260506221749 | 59 | 151 | 6.0 | 8.0 | 0.00 | 0.00 | 0.00 | 85 | 1015.0 |
| 20260506220748 | 61 | 151 | 5.0 | 8.0 | 0.00 | 0.00 | 0.00 | 85 | 1015.0 |
| 20260506215748 | 59 | 151 | 6.0 | 8.0 | 0.00 | 0.00 | 0.00 | 85 | 1015.0 |
| 20260506214747 | 61 | 151 | 5.0 | 8.0 | 0.00 | 0.00 | 0.00 | 85 | 1015.0 |
| 20260506213746 | 59 | 151 | 6.0 | 8.0 | 0.00 | 0.00 | 0.00 | 85 | 1015.0 |
| 20260506212746 | 62 | 153 | 5.0 | 7.0 | 0.00 | 0.00 | 0.00 | 85 | 1014.0 |
| 20260506211745 | 61 | 153 | 5.0 | 7.0 | 0.00 | 0.00 | 0.00 | 85 | 1014.0 |
| 20260506210744 | 61 | 153 | 5.0 | 7.0 | 0.00 | 0.00 | 0.00 | 85 | 1014.0 |
| 20260506205744 | 59 | 153 | 6.0 | 7.0 | 0.00 | 0.00 | 0.00 | 85 | 1014.0 |
| 20260506204743 | 63 | 159 | 5.0 | 8.0 | 0.00 | 0.00 | 0.00 | 85 | 1014.0 |
| 20260506203743 | 61 | 159 | 5.0 | 8.0 | 0.00 | 0.00 | 0.00 | 85 | 1014.0 |
| 20260506202742 | 59 | 159 | 6.0 | 8.0 | 0.00 | 0.00 | 0.00 | 85 | 1014.0 |
| 20260506201742 | 62 | 159 | 5.0 | 8.0 | 0.00 | 0.00 | 0.00 | 84 | 1014.0 |
| 20260506200741 | 62 | 159 | 5.0 | 8.0 | 0.00 | 0.00 | 0.00 | 84 | 1014.0 |
| 20260506195741 | 60 | 159 | 6.0 | 8.0 | 0.00 | 0.00 | 0.00 | 84 | 1014.0 |
| 20260506194740 | 63 | 159 | 5.0 | 8.0 | 0.00 | 0.00 | 0.00 | 79 | 1014.0 |
| 20260506193739 | 61 | 159 | 6.0 | 8.0 | 0.00 | 0.00 | 0.00 | 80 | 1014.0 |
| 20260506192739 | 64 | 120 | 12.0 | 0.0 | 0.00 | 0.00 | 0.00 | 80 | 1015.0 |
| 20260506191738 | 62 | 120 | 11.0 | 25.0 | 0.00 | 0.00 | 0.00 | 89 | 1015.0 |
| 20260506190738 | 60 | 120 | 11.0 | 25.0 | 0.00 | 0.00 | 0.00 | 90 | 1015.0 |
| 20260506185737 | 57 | 120 | 11.0 | 25.0 | 0.00 | 0.00 | 0.00 | 92 | 1015.0 |
| 20260506184737 | 64 | 120 | 11.0 | 25.0 | 0.00 | 0.00 | 0.00 | 92 | 1015.0 |
| 20260506183736 | 60 | 148 | 4.0 | 7.0 | 0.00 | 0.00 | 0.00 | 92 | 1015.0 |
| 20260506182735 | 58 | 148 | 4.0 | 7.0 | 0.00 | 0.00 | 0.00 | 92 | 1017.0 |
| 20260506181735 | 56 | 148 | 4.0 | 7.0 | 0.00 | 0.00 | 0.00 | 92 | 1017.0 |
| 20260506180734 | 61 | 145 | 4.0 | 7.0 | 0.00 | 0.00 | 0.00 | 92 | 1017.0 |
| 20260506175734 | 60 | 145 | 4.0 | 7.0 | 0.00 | 0.00 | 0.00 | 92 | 1017.0 |
| 20260506174733 | 58 | 145 | 4.0 | 7.0 | 0.00 | 0.00 | 0.00 | 92 | 1017.0 |
| 20260506173733 | 56 | 145 | 4.0 | 7.0 | 0.00 | 0.00 | 0.00 | 92 | 1017.0 |
| 20260506172732 | 56 | 141 | 2.0 | 4.0 | 0.00 | 0.00 | 0.00 | 92 | 1019.0 |
| 20260506171732 | 56 | 141 | 2.0 | 4.0 | 0.00 | 0.00 | 0.00 | 92 | 1019.0 |
| 20260506170731 | 56 | 141 | 2.0 | 4.0 | 0.00 | 0.00 | 0.00 | 92 | 1019.0 |
| 20260506165730 | 56 | 141 | 2.0 | 4.0 | 0.00 | 0.00 | 0.00 | 92 | 1019.0 |
| 20260506164730 | 56 | 141 | 2.0 | 4.0 | 0.00 | 0.00 | 0.00 | 92 | 1019.0 |
| 20260506163729 | 56 | 141 | 2.0 | 4.0 | 0.00 | 0.00 | 0.00 | 92 | 1019.0 |
| 20260506162729 | 58 | 101 | 1.0 | 4.0 | 0.00 | 0.00 | 0.00 | 92 | 1019.0 |
| 20260506161728 | 56 | 101 | 2.0 | 4.0 | 0.00 | 0.00 | 0.00 | 92 | 1019.0 |
| 20260506160727 | 58 | 101 | 1.0 | 4.0 | 0.00 | 0.00 | 0.00 | 92 | 1019.0 |
| 20260506155727 | 56 | 101 | 2.0 | 4.0 | 0.00 | 0.00 | 0.00 | 92 | 1020.0 |
| 20260506154726 | 58 | 101 | 1.0 | 4.0 | 0.00 | 0.00 | 0.00 | 92 | 1020.0 |
| 20260506153726 | 56 | 101 | 2.0 | 4.0 | 0.00 | 0.00 | 0.00 | 92 | 1020.0 |
| 20260506152725 | 58 | 115 | 1.0 | 3.0 | 0.00 | 0.00 | 0.00 | 92 | 1019.0 |
| 20260506151725 | 56 | 115 | 1.0 | 3.0 | 0.00 | 0.00 | 0.00 | 92 | 1019.0 |
| 20260506150724 | 58 | 90 | 5.0 | 0.0 | 0.00 | 0.00 | 0.00 | 92 | 1019.0 |
| 20260506145724 | 56 | 90 | 6.0 | 0.0 | 0.00 | 0.00 | 0.00 | 92 | 1020.0 |
| 20260506144723 | 56 | 90 | 6.0 | 0.0 | 0.00 | 0.00 | 0.00 | 92 | 1020.0 |
| 20260506143723 | 56 | 90 | 6.0 | 0.0 | 0.00 | 0.00 | 0.00 | 93 | 1020.0 |
| 20260506142722 | 56 | 90 | 6.0 | 0.0 | 0.00 | 0.00 | 0.00 | 94 | 1019.0 |
| 20260506141722 | 58 | 90 | 6.0 | 0.0 | 0.00 | 0.00 | 0.00 | 96 | 1019.0 |
| 20260506140721 | 55 | 70 | 3.0 | 0.0 | 0.00 | 0.00 | 0.00 | 99 | 1020.0 |
| 20260506135720 | 55 | 70 | 3.0 | 0.0 | 0.00 | 0.00 | 0.00 | 99 | 1020.0 |
| 20260506134720 | 56 | 70 | 3.0 | 0.0 | 0.00 | 0.00 | 0.00 | 99 | 1020.0 |
| 20260506133719 | 53 | 70 | 3.0 | 0.0 | 0.00 | 0.00 | 0.00 | 99 | 1020.0 |
| 20260506132719 | 53 | 70 | 3.0 | 0.0 | 0.00 | 0.00 | 0.00 | 99 | 1020.0 |
| 20260506131718 | 53 | 70 | 3.0 | 0.0 | 0.00 | 0.00 | 0.00 | 99 | 1020.0 |
| 20260506130718 | 52 | 0 | 1.0 | 0.0 | 0.00 | 0.00 | 0.00 | 99 | 1020.0 |
| 20260506125717 | 52 | 0 | 1.0 | 0.0 | 0.00 | 0.00 | 0.00 | 99 | 1020.0 |
| 20260506124717 | 52 | 0 | 1.0 | 0.0 | 0.00 | 0.00 | 0.00 | 99 | 1020.0 |
| 20260506123716 | 52 | 20 | 3.0 | 0.0 | 0.00 | 0.00 | 0.00 | 98 | 1020.0 |
| 20260506122716 | 52 | 20 | 3.0 | 0.0 | 0.00 | 0.00 | 0.00 | 98 | 1020.0 |
| 20260506121715 | 52 | 40 | 3.0 | 0.0 | 0.00 | 0.00 | 0.00 | 98 | 1020.0 |
| 20260506120714 | 51 | 60 | 4.0 | 0.0 | 0.00 | 0.00 | 0.00 | 98 | 1020.0 |
| 20260506115714 | 51 | 0 | 2.0 | 0.0 | 0.00 | 0.00 | 0.00 | 98 | 1020.0 |
| 20260506114713 | 51 | 0 | 2.0 | 0.0 | 0.00 | 0.00 | 0.00 | 98 | 1020.0 |
| 20260506113713 | 51 | 0 | 2.0 | 0.0 | 0.00 | 0.00 | 0.00 | 98 | 1020.0 |
| 20260506112712 | 51 | 0 | 2.0 | 0.0 | 0.00 | 0.00 | 0.00 | 98 | 1020.0 |